Overview Statistics Trail Chart Weather Telemetry Raw packets
 

This is the latest recevied telemetry packets stored in our database for station/object OZ5LED-1. If no packets are shown the sender has not sent any telemetry packets the latest 10 day(s).

Telemetry packets is used to share measurements like repeteater parameters, battery voltage, radiation readings (or any other measurements).

<< 1 2 3 4 >>
Time Press* Temp.in* Hum* QNH* Temp.out*
1788425368 1008.5 hPa 23.8 C deg 42.8 % 1014.7 hPa 0 C deg
1788423568 1008.8 hPa 23.9 C deg 42.6 % 1015.1 hPa 0 C deg
1788421768 1009 hPa 23.9 C deg 42.9 % 1015.3 hPa 0 C deg
1788419968 1009.3 hPa 23.9 C deg 42.9 % 1015.6 hPa 0 C deg
1788418168 1009.5 hPa 23.8 C deg 43.4 % 1015.8 hPa 0 C deg
1788416368 1009.8 hPa 23.9 C deg 43.4 % 1016.1 hPa 0 C deg
1788414568 1010.2 hPa 24.1 C deg 43.5 % 1016.4 hPa 0 C deg
1788412768 1010.5 hPa 24.1 C deg 41.2 % 1016.8 hPa 0 C deg
1788410968 1010.8 hPa 24 C deg 41.5 % 1017.1 hPa 0 C deg
1788409168 1011.2 hPa 24.1 C deg 41.3 % 1017.5 hPa 0 C deg
1788407368 1011.6 hPa 24.3 C deg 41 % 1017.9 hPa 0 C deg
1788405568 1011.9 hPa 24 C deg 41.6 % 1018.2 hPa 0 C deg
1788403768 1012 hPa 24.2 C deg 41.2 % 1018.3 hPa 0 C deg
1788401967 1012.3 hPa 24.3 C deg 41.1 % 1018.6 hPa 0 C deg
1788400167 1012.6 hPa 24.3 C deg 41.3 % 1018.9 hPa 0 C deg
1788398367 1013 hPa 24.3 C deg 41.3 % 1019.2 hPa 0 C deg
1788396567 1013 hPa 24.3 C deg 41.4 % 1019.3 hPa 0 C deg
1788394767 1013.2 hPa 24.3 C deg 41.5 % 1019.5 hPa 0 C deg
1788392967 1013.3 hPa 24.2 C deg 41.7 % 1019.5 hPa 0 C deg
1788391182 1013.5 hPa 24.2 C deg 41.7 % 1019.8 hPa 0 C deg
1788389367 1013.6 hPa 24.3 C deg 41.8 % 1019.9 hPa 0 C deg
1788387567 1013.7 hPa 24.3 C deg 41.8 % 1019.9 hPa 0 C deg
1788385767 1013.6 hPa 24.4 C deg 41.7 % 1019.9 hPa 0 C deg
1788383967 1013.6 hPa 24.3 C deg 42 % 1019.9 hPa 0 C deg
1788382167 1013.5 hPa 24.3 C deg 41.9 % 1019.8 hPa 0 C deg
*Used Equation Coefficients:
Press: 0, 1, 0
Temp.in: 0, 1, 0
Hum: 0, 1, 0
QNH: 0, 1, 0
Temp.out: 0, 1, 0

  • The parameter names for the analog channels will be Value1, Value2, Value3 (up to Value5) if station has not sent a PARAM-packet that specifies the parameter names for each analog channel.
  • Each analog value is a decimal number between 000 and 255 (according to APRS specifications). The receiver use the telemetry equation coefficientsto to restore the original sensor values. If no EQNS-packet with equation coefficients is sent we will show the values as is (this corresponds to the equation coefficients a=0, b=1 and c=0).
    The sent equation coefficients is used in the equation: a * value2 + b * value + c.
  • The units for the analog values will not be shown if station has not sent a UNIT-packet specifying what unit's to use.
  • The parameter names for the digital bits will be Bit1, Bit2, Bit3 (up to Bit8) if station has not sent a PARAM-packet that specifies the parameter names for each digital bit.
  • All bit labels will be named "On" if station has not sent a UNIT-packet that specifies the label of each bit.
  • A bit is considered to be On when the bit is 1 if station has not sent a BITS-packet that specifies another "Bit sense" (a BITS-packet specify the state of the bits that match the BIT labels)